createdAt,value
2017-08-09T00:00:15.858Z,988.64
2017-08-09T00:01:25.506Z,988.6
2017-08-09T00:02:35.785Z,988.65
2017-08-09T00:03:45.744Z,988.62
2017-08-09T00:04:55.073Z,988.64
2017-08-09T00:06:05.039Z,988.61
2017-08-09T00:07:15.311Z,988.63
2017-08-09T00:08:25.583Z,988.64
2017-08-09T00:09:35.853Z,988.66
2017-08-09T00:10:45.818Z,988.64
2017-08-09T00:11:56.094Z,988.67
2017-08-09T00:13:05.738Z,988.65
2017-08-09T00:14:16.014Z,988.65
2017-08-09T00:15:26.291Z,988.64
2017-08-09T00:16:36.575Z,988.66
2017-08-09T00:17:46.534Z,988.69
2017-08-09T00:18:56.811Z,988.66
2017-08-09T00:20:07.105Z,988.67
2017-08-09T00:21:17.070Z,988.71
2017-08-09T00:22:27.053Z,988.7
2017-08-09T00:23:37.330Z,988.68
2017-08-09T00:24:47.631Z,988.7
2017-08-09T00:25:57.912Z,988.73
2017-08-09T00:27:08.195Z,988.71
2017-08-09T00:28:18.471Z,988.73
2017-08-09T00:29:28.745Z,988.75
2017-08-09T00:30:39.022Z,988.77
2017-08-09T00:31:48.713Z,988.73
2017-08-09T00:32:58.672Z,988.74
2017-08-09T00:34:08.637Z,988.7
2017-08-09T00:35:18.914Z,988.67
2017-08-09T00:36:29.188Z,988.69
2017-08-09T00:37:41.564Z,988.67
2017-08-09T00:38:51.204Z,988.72
2017-08-09T00:40:01.165Z,988.72
2017-08-09T00:41:11.126Z,988.67
2017-08-09T00:42:20.774Z,988.68
2017-08-09T00:43:30.416Z,988.66
2017-08-09T00:44:40.689Z,988.65
2017-08-09T00:45:50.961Z,988.61
2017-08-09T00:47:00.928Z,988.64
2017-08-09T00:48:11.199Z,988.67
2017-08-09T00:49:21.473Z,988.65
2017-08-09T00:50:31.115Z,988.64
2017-08-09T00:51:40.757Z,988.67
2017-08-09T00:52:51.031Z,988.6
2017-08-09T00:54:01.306Z,988.58
2017-08-09T00:55:11.268Z,988.55
2017-08-09T00:56:21.237Z,988.58
2017-08-09T00:57:31.197Z,988.58
2017-08-09T00:58:41.158Z,988.57
2017-08-09T00:59:51.118Z,988.57
2017-08-09T01:01:01.075Z,988.55
2017-08-09T01:02:10.719Z,988.53
2017-08-09T01:03:20.674Z,988.52
2017-08-09T01:04:30.953Z,988.5
2017-08-09T01:05:41.226Z,988.48
2017-08-09T01:06:51.502Z,988.49
2017-08-09T01:08:01.782Z,988.49
2017-08-09T01:09:11.744Z,988.44
2017-08-09T01:10:21.705Z,988.44
2017-08-09T01:11:31.975Z,988.43
2017-08-09T01:12:41.933Z,988.44
2017-08-09T01:13:52.236Z,988.43
2017-08-09T01:15:02.194Z,988.41
2017-08-09T01:16:12.159Z,988.41
2017-08-09T01:17:22.116Z,988.42
2017-08-09T01:18:31.763Z,988.38
2017-08-09T01:19:42.037Z,988.4
2017-08-09T01:20:52.001Z,988.41
2017-08-09T01:22:01.965Z,988.41
2017-08-09T01:23:12.246Z,988.44
2017-08-09T01:24:22.519Z,988.43
2017-08-09T01:25:32.792Z,988.41
2017-08-09T01:26:43.095Z,988.41
2017-08-09T01:27:53.377Z,988.35
2017-08-09T01:29:03.333Z,988.37
2017-08-09T01:30:13.622Z,988.37
2017-08-09T01:31:23.895Z,988.33
2017-08-09T01:32:34.168Z,988.37
2017-08-09T01:33:44.128Z,988.33
2017-08-09T01:34:54.401Z,988.32
2017-08-09T01:36:04.672Z,988.32
2017-08-09T01:37:14.640Z,988.29
2017-08-09T01:38:24.921Z,988.29
2017-08-09T01:39:35.195Z,988.24
2017-08-09T01:40:45.515Z,988.24
2017-08-09T01:41:55.785Z,988.21
2017-08-09T01:43:05.429Z,988.19
2017-08-09T01:44:15.704Z,988.21
2017-08-09T01:45:25.978Z,988.21
2017-08-09T01:46:35.938Z,988.21
2017-08-09T01:47:45.901Z,988.17
2017-08-09T01:48:56.174Z,988.18
2017-08-09T01:50:05.821Z,988.13
2017-08-09T01:51:16.093Z,988.16
2017-08-09T01:52:26.063Z,988.12
2017-08-09T01:53:36.333Z,988.15
2017-08-09T01:54:46.292Z,988.14
2017-08-09T01:55:56.571Z,988.14
2017-08-09T01:57:06.840Z,988.11
2017-08-09T01:58:17.116Z,988.1
2017-08-09T01:59:27.073Z,988.04
2017-08-09T02:00:37.349Z,988.04
2017-08-09T02:01:47.625Z,988.01
2017-08-09T02:02:57.902Z,988.02
2017-08-09T02:04:07.234Z,988.03
2017-08-09T02:05:17.518Z,988
2017-08-09T02:06:27.791Z,987.97
2017-08-09T02:07:38.070Z,987.98
2017-08-09T02:08:48.046Z,987.96
2017-08-09T02:09:58.000Z,987.99
2017-08-09T02:11:08.277Z,987.99
2017-08-09T02:12:18.234Z,987.97
2017-08-09T02:13:28.506Z,987.96
2017-08-09T02:14:38.779Z,987.98
2017-08-09T02:15:48.746Z,987.96
2017-08-09T02:16:58.703Z,987.9
2017-08-09T02:18:08.987Z,987.84
2017-08-09T02:19:19.261Z,987.81
2017-08-09T02:20:29.540Z,987.77
2017-08-09T02:21:39.818Z,987.79
2017-08-09T02:22:49.783Z,987.83
2017-08-09T02:24:00.054Z,987.83
2017-08-09T02:25:09.702Z,987.87
2017-08-09T02:26:19.666Z,987.86
2017-08-09T02:27:29.632Z,987.94
2017-08-09T02:28:39.908Z,988.02
2017-08-09T02:29:49.235Z,988.05
2017-08-09T02:30:59.192Z,988.12
2017-08-09T02:32:09.470Z,988.14
2017-08-09T02:33:19.746Z,988.16
2017-08-09T02:34:29.384Z,988.23
2017-08-09T02:35:39.034Z,988.21
2017-08-09T02:36:48.995Z,988.23
2017-08-09T02:37:59.280Z,988.24
2017-08-09T02:39:09.244Z,988.27
2017-08-09T02:40:19.204Z,988.34
2017-08-09T02:41:29.481Z,988.37
2017-08-09T02:42:39.758Z,988.43
2017-08-09T02:43:49.728Z,988.48
2017-08-09T02:44:59.690Z,988.51
2017-08-09T02:46:09.342Z,988.55
2017-08-09T02:47:19.620Z,988.57
2017-08-09T02:48:29.896Z,988.55
2017-08-09T02:49:39.553Z,988.56
2017-08-09T02:50:49.553Z,988.53
2017-08-09T02:51:59.827Z,988.61
2017-08-09T02:53:09.800Z,988.58
2017-08-09T02:54:19.763Z,988.64
2017-08-09T02:55:30.033Z,988.63
2017-08-09T02:56:40.306Z,988.59
2017-08-09T02:57:50.578Z,988.61
2017-08-09T02:59:00.850Z,988.63
2017-08-09T03:00:11.123Z,988.63
2017-08-09T03:01:21.108Z,988.63
2017-08-09T03:02:31.379Z,988.65
2017-08-09T03:03:41.334Z,988.63
2017-08-09T03:04:51.618Z,988.63
2017-08-09T03:06:01.577Z,988.67
2017-08-09T03:07:11.851Z,988.62
2017-08-09T03:08:22.121Z,988.66
2017-08-09T03:09:32.405Z,988.61
2017-08-09T03:10:42.047Z,988.56
2017-08-09T03:11:51.694Z,988.57
2017-08-09T03:13:01.965Z,988.55
2017-08-09T03:14:12.237Z,988.49
2017-08-09T03:15:22.508Z,988.51
2017-08-09T03:16:32.776Z,988.5
2017-08-09T03:17:43.046Z,988.45
2017-08-09T03:18:53.001Z,988.46
2017-08-09T03:20:03.272Z,988.39
2017-08-09T03:21:13.257Z,988.39
2017-08-09T03:22:23.527Z,988.36
2017-08-09T03:23:33.799Z,988.32
2017-08-09T03:24:44.074Z,988.31
2017-08-09T03:25:54.028Z,988.28
2017-08-09T03:27:04.303Z,988.26
2017-08-09T03:28:14.259Z,988.2
2017-08-09T03:29:24.533Z,988.19
2017-08-09T03:30:34.499Z,988.18
2017-08-09T03:31:44.787Z,988.15
2017-08-09T03:32:54.753Z,988.13
2017-08-09T03:34:04.711Z,987.97
2017-08-09T03:35:14.987Z,987.68
2017-08-09T03:36:24.953Z,987.42
2017-08-09T03:37:34.945Z,987.37
2017-08-09T03:38:45.219Z,987.55
2017-08-09T03:39:55.191Z,987.84
2017-08-09T03:41:05.462Z,988.02
2017-08-09T03:42:15.741Z,988.06
2017-08-09T03:43:26.019Z,988.15
2017-08-09T03:44:36.294Z,988.25
2017-08-09T03:45:46.590Z,988.2
2017-08-09T03:46:56.547Z,988.22
2017-08-09T03:48:06.820Z,988.14
2017-08-09T03:49:16.780Z,988.18
2017-08-09T03:50:27.056Z,988.13
2017-08-09T03:51:37.329Z,988.17
2017-08-09T03:52:47.604Z,988.17
2017-08-09T03:53:57.876Z,988.2
2017-08-09T03:55:08.149Z,988.18
2017-08-09T03:56:18.431Z,988.22
2017-08-09T03:57:28.073Z,988.18
2017-08-09T03:58:38.344Z,988.2
2017-08-09T03:59:48.621Z,988.23
2017-08-09T04:00:58.897Z,988.23
2017-08-09T04:02:08.856Z,988.2
2017-08-09T04:03:18.812Z,988.15
2017-08-09T04:04:28.478Z,988.07
2017-08-09T04:05:38.436Z,988
2017-08-09T04:06:48.708Z,987.96
2017-08-09T04:07:58.979Z,987.86
2017-08-09T04:09:08.937Z,987.87
2017-08-09T04:10:19.215Z,987.81
2017-08-09T04:11:28.863Z,987.82
2017-08-09T04:12:39.140Z,987.84
2017-08-09T04:13:49.413Z,987.85
2017-08-09T04:14:59.369Z,987.89
2017-08-09T04:16:09.660Z,987.91
2017-08-09T04:17:19.939Z,987.9
2017-08-09T04:18:30.214Z,987.9
2017-08-09T04:19:40.177Z,987.89
2017-08-09T04:20:50.135Z,987.86
2017-08-09T04:22:00.090Z,987.8
2017-08-09T04:23:10.047Z,987.81
2017-08-09T04:24:20.323Z,987.81
2017-08-09T04:25:29.965Z,987.85
2017-08-09T04:26:40.234Z,987.88
2017-08-09T04:27:50.505Z,987.93
2017-08-09T04:29:00.468Z,987.96
2017-08-09T04:30:10.760Z,987.95
2017-08-09T04:31:20.718Z,987.95
2017-08-09T04:32:30.988Z,987.86
2017-08-09T04:33:40.958Z,987.73
2017-08-09T04:34:50.923Z,987.49
2017-08-09T04:36:00.879Z,987.49
2017-08-09T04:37:11.171Z,987.61
2017-08-09T04:38:21.128Z,987.77
2017-08-09T04:39:31.408Z,987.81
2017-08-09T04:40:41.364Z,987.85
2017-08-09T04:41:51.327Z,987.86
2017-08-09T04:43:01.600Z,987.91
2017-08-09T04:44:11.883Z,987.91
2017-08-09T04:45:22.157Z,987.96
2017-08-09T04:46:32.115Z,987.98
2017-08-09T04:47:42.390Z,987.99
2017-08-09T04:48:52.346Z,987.95
2017-08-09T04:50:02.305Z,987.96
2017-08-09T04:51:12.575Z,988.01
2017-08-09T04:52:22.851Z,988.02
2017-08-09T04:53:33.122Z,988.03
2017-08-09T04:54:43.397Z,988.02
2017-08-09T04:55:53.693Z,987.92
2017-08-09T04:57:03.965Z,987.87
2017-08-09T04:58:14.236Z,987.9
2017-08-09T04:59:24.193Z,987.89
2017-08-09T05:00:34.476Z,987.88
2017-08-09T05:01:44.440Z,987.84
2017-08-09T05:02:54.778Z,987.85
2017-08-09T05:04:05.052Z,987.87
2017-08-09T05:05:15.010Z,987.93
2017-08-09T05:06:24.968Z,987.88
2017-08-09T05:07:34.928Z,987.86
2017-08-09T05:08:44.887Z,987.84
2017-08-09T05:09:54.846Z,987.8
2017-08-09T05:11:05.128Z,987.85
2017-08-09T05:12:15.096Z,987.82
2017-08-09T05:13:25.377Z,987.83
2017-08-09T05:14:35.356Z,987.81
2017-08-09T05:15:45.630Z,987.79
2017-08-09T05:16:55.271Z,987.71
2017-08-09T05:18:05.235Z,987.74
2017-08-09T05:19:15.510Z,987.72
2017-08-09T05:20:25.784Z,987.74
2017-08-09T05:21:36.057Z,987.79
2017-08-09T05:22:46.332Z,987.77
2017-08-09T05:23:56.352Z,987.77
2017-08-09T05:25:06.648Z,987.72
2017-08-09T05:26:16.606Z,987.62
2017-08-09T05:27:26.890Z,987.58
2017-08-09T05:28:36.847Z,987.54
2017-08-09T05:29:47.141Z,987.52
2017-08-09T05:30:57.412Z,987.53
2017-08-09T05:32:07.690Z,987.54
2017-08-09T05:33:17.963Z,987.42
2017-08-09T05:34:28.236Z,987.34
2017-08-09T05:35:38.508Z,987.29
2017-08-09T05:36:48.782Z,987.29
2017-08-09T05:37:59.053Z,987.28
2017-08-09T05:39:09.326Z,987.32
2017-08-09T05:40:19.293Z,987.39
2017-08-09T05:41:28.954Z,987.44
2017-08-09T05:42:38.921Z,987.45
2017-08-09T05:43:49.193Z,987.42
2017-08-09T05:44:58.843Z,987.36
2017-08-09T05:46:09.155Z,987.31
2017-08-09T05:47:19.432Z,987.29
2017-08-09T05:48:29.391Z,987.3
2017-08-09T05:49:39.350Z,987.33
2017-08-09T05:50:49.311Z,987.33
2017-08-09T05:51:59.584Z,987.3
2017-08-09T05:53:09.882Z,987.27
2017-08-09T05:54:20.165Z,987.31
2017-08-09T05:55:30.225Z,987.27
2017-08-09T05:56:40.502Z,987.25
2017-08-09T05:57:50.782Z,987.26
2017-08-09T05:59:01.084Z,987.24
2017-08-09T06:00:11.056Z,987.32
2017-08-09T06:01:21.017Z,987.33
2017-08-09T06:02:31.296Z,987.41
2017-08-09T06:03:41.255Z,987.44
2017-08-09T06:04:51.527Z,987.41
2017-08-09T06:06:01.801Z,987.42
2017-08-09T06:07:12.077Z,987.46
2017-08-09T06:08:22.043Z,987.53
2017-08-09T06:09:32.050Z,987.49
2017-08-09T06:10:42.346Z,987.47
2017-08-09T06:11:52.304Z,987.39
2017-08-09T06:13:02.578Z,987.31
2017-08-09T06:14:12.854Z,987.26
2017-08-09T06:15:22.824Z,987.32
2017-08-09T06:16:33.098Z,987.3
2017-08-09T06:17:43.373Z,987.25
2017-08-09T06:18:53.332Z,987.3
2017-08-09T06:20:02.972Z,987.29
2017-08-09T06:21:12.617Z,987.35
2017-08-09T06:22:22.577Z,987.34
2017-08-09T06:23:32.219Z,987.36
2017-08-09T06:24:42.505Z,987.4
2017-08-09T06:25:52.462Z,987.42
2017-08-09T06:27:02.743Z,987.36
2017-08-09T06:28:12.723Z,987.4
2017-08-09T06:29:22.997Z,987.4
2017-08-09T06:30:33.297Z,987.43
2017-08-09T06:31:43.584Z,987.44
2017-08-09T06:32:53.545Z,987.44
2017-08-09T06:34:03.823Z,987.49
2017-08-09T06:35:14.097Z,987.5
2017-08-09T06:36:24.375Z,987.44
2017-08-09T06:37:34.649Z,987.51
2017-08-09T06:38:44.293Z,987.47
2017-08-09T06:39:54.565Z,987.5
2017-08-09T06:41:04.886Z,987.5
2017-08-09T06:42:15.159Z,987.5
2017-08-09T06:43:25.434Z,987.51
2017-08-09T06:44:35.734Z,987.47
2017-08-09T06:45:46.014Z,987.48
2017-08-09T06:46:55.986Z,987.46
2017-08-09T06:48:06.264Z,987.44
2017-08-09T06:49:16.538Z,987.42
2017-08-09T06:50:26.499Z,987.43
2017-08-09T06:51:36.770Z,987.43
2017-08-09T06:52:46.727Z,987.41
2017-08-09T06:53:57.000Z,987.48
2017-08-09T06:55:07.273Z,987.47
2017-08-09T06:56:17.547Z,987.49
2017-08-09T06:57:27.505Z,987.48
2017-08-09T06:58:37.196Z,987.42
2017-08-09T06:59:47.158Z,987.41
2017-08-09T07:00:57.429Z,987.44
2017-08-09T07:02:07.075Z,987.41
2017-08-09T07:03:17.037Z,987.38
2017-08-09T07:04:27.310Z,987.36
2017-08-09T07:05:37.594Z,987.32
2017-08-09T07:06:47.873Z,987.28
2017-08-09T07:07:57.516Z,987.3
2017-08-09T07:09:07.476Z,987.31
2017-08-09T07:10:17.435Z,987.28
2017-08-09T07:11:27.716Z,987.27
2017-08-09T07:12:37.679Z,987.26
2017-08-09T07:13:47.639Z,987.24
2017-08-09T07:14:57.602Z,987.23
2017-08-09T07:16:07.891Z,987.27
2017-08-09T07:17:18.187Z,987.23
2017-08-09T07:18:28.169Z,987.21
2017-08-09T07:19:38.133Z,987.24
2017-08-09T07:20:48.088Z,987.25
2017-08-09T07:21:58.046Z,987.25
2017-08-09T07:23:08.005Z,987.24
2017-08-09T07:24:18.281Z,987.24
2017-08-09T07:25:28.241Z,987.15
2017-08-09T07:26:38.517Z,987.13
2017-08-09T07:27:48.789Z,987.13
2017-08-09T07:28:58.121Z,987.17
2017-08-09T07:30:08.090Z,987.16
2017-08-09T07:31:18.367Z,987.16
2017-08-09T07:32:28.024Z,987.19
2017-08-09T07:33:38.016Z,987.19
2017-08-09T07:34:47.975Z,987.23
2017-08-09T07:35:57.937Z,987.18
2017-08-09T07:37:07.590Z,987.15
2017-08-09T07:38:17.546Z,987.12
2017-08-09T07:39:27.504Z,987.14
2017-08-09T07:40:37.476Z,987.14
2017-08-09T07:41:47.439Z,987.17
2017-08-09T07:42:57.738Z,987.18
2017-08-09T07:44:07.695Z,987.2
2017-08-09T07:45:17.655Z,987.22
2017-08-09T07:46:27.939Z,987.26
2017-08-09T07:47:38.217Z,987.19
2017-08-09T07:48:48.174Z,987.22
2017-08-09T07:49:57.820Z,987.26
2017-08-09T07:51:07.465Z,987.23
2017-08-09T07:52:17.439Z,987.2
2017-08-09T07:53:27.400Z,987.2
2017-08-09T07:54:37.249Z,987.21
2017-08-09T07:55:46.910Z,987.17
2017-08-09T07:56:56.890Z,987.18
2017-08-09T07:58:07.166Z,987.18
2017-08-09T07:59:17.154Z,987.16
2017-08-09T08:00:27.468Z,987.11
2017-08-09T08:01:37.140Z,987.14
2017-08-09T08:02:47.413Z,987.17
2017-08-09T08:03:57.695Z,987.17
2017-08-09T08:05:07.358Z,987.15
2017-08-09T08:06:17.636Z,987.18
2017-08-09T08:07:27.597Z,987.21
2017-08-09T08:08:37.558Z,987.24
2017-08-09T08:09:47.828Z,987.22
2017-08-09T08:10:57.514Z,987.22
2017-08-09T08:12:07.792Z,987.24
2017-08-09T08:13:17.764Z,987.18
2017-08-09T08:14:27.723Z,987.19
2017-08-09T08:15:38.004Z,987.16
2017-08-09T08:16:47.963Z,987.13
2017-08-09T08:17:57.628Z,987.13
2017-08-09T08:19:07.585Z,987.08
2017-08-09T08:20:17.562Z,987.04
2017-08-09T08:21:27.549Z,987.03
2017-08-09T08:22:37.823Z,987.05
2017-08-09T08:23:48.117Z,987.01
2017-08-09T08:24:58.396Z,987.01
2017-08-09T08:26:08.695Z,987.03
2017-08-09T08:27:18.655Z,987.02
2017-08-09T08:28:28.929Z,987.01
2017-08-09T08:29:39.209Z,987.02
2017-08-09T08:30:49.171Z,987.02
2017-08-09T08:31:59.130Z,987.02
2017-08-09T08:33:09.091Z,987.03
2017-08-09T08:34:19.366Z,987.04
2017-08-09T08:35:29.035Z,987.02
2017-08-09T08:36:38.999Z,987.05
2017-08-09T08:37:48.962Z,987.03
2017-08-09T08:38:58.934Z,987.02
2017-08-09T08:40:08.894Z,986.96
2017-08-09T08:41:19.178Z,986.92
2017-08-09T08:42:29.472Z,986.86
2017-08-09T08:43:39.435Z,986.86
2017-08-09T08:44:49.714Z,986.82
2017-08-09T08:45:59.670Z,986.84
2017-08-09T08:47:09.637Z,986.87
2017-08-09T08:48:19.923Z,986.88
2017-08-09T08:49:30.207Z,986.86
2017-08-09T08:50:40.481Z,986.89
2017-08-09T08:51:50.754Z,986.86
2017-08-09T08:53:01.027Z,986.8
2017-08-09T08:54:10.772Z,986.76
2017-08-09T08:55:21.051Z,986.65
2017-08-09T08:56:31.015Z,986.63
2017-08-09T08:57:41.302Z,986.63
2017-08-09T08:58:51.261Z,986.61
2017-08-09T09:00:01.540Z,986.59
2017-08-09T09:01:11.501Z,986.64
2017-08-09T09:02:21.776Z,986.68
2017-08-09T09:03:31.740Z,986.7
2017-08-09T09:04:41.700Z,986.7
2017-08-09T09:05:51.345Z,986.71
2017-08-09T09:07:01.618Z,986.72
2017-08-09T09:08:11.583Z,986.69
2017-08-09T09:09:21.544Z,986.7
2017-08-09T09:10:31.819Z,986.73
2017-08-09T09:11:41.870Z,986.76
2017-08-09T09:12:51.836Z,986.74
2017-08-09T09:14:01.795Z,986.74
2017-08-09T09:15:11.446Z,986.76
2017-08-09T09:16:21.733Z,986.73
2017-08-09T09:17:31.694Z,986.67
2017-08-09T09:18:41.970Z,986.66
2017-08-09T09:19:51.309Z,986.62
2017-08-09T09:21:01.279Z,986.62
2017-08-09T09:22:11.239Z,986.57
2017-08-09T09:23:21.516Z,986.55
2017-08-09T09:24:31.477Z,986.6
2017-08-09T09:25:41.760Z,986.59
2017-08-09T09:26:51.731Z,986.62
2017-08-09T09:28:01.697Z,986.61
2017-08-09T09:29:11.981Z,986.63
2017-08-09T09:30:21.627Z,986.61
2017-08-09T09:31:31.914Z,986.61
2017-08-09T09:32:41.874Z,986.59
2017-08-09T09:33:52.153Z,986.57
2017-08-09T09:35:02.428Z,986.54
2017-08-09T09:36:12.395Z,986.48
2017-08-09T09:37:22.667Z,986.47
2017-08-09T09:38:32.655Z,986.48
2017-08-09T09:39:42.314Z,986.48
2017-08-09T09:40:52.273Z,986.46
2017-08-09T09:42:02.573Z,986.47
2017-08-09T09:43:12.851Z,986.46
2017-08-09T09:44:23.132Z,986.46
2017-08-09T09:45:32.780Z,986.47
2017-08-09T09:46:42.739Z,986.48
2017-08-09T09:47:52.390Z,986.49
2017-08-09T09:49:02.350Z,986.48
2017-08-09T09:50:12.311Z,986.49
2017-08-09T09:51:21.974Z,986.45
2017-08-09T09:52:32.246Z,986.44
2017-08-09T09:53:42.212Z,986.43
2017-08-09T09:54:52.182Z,986.42
2017-08-09T09:56:02.155Z,986.4
2017-08-09T09:57:12.430Z,986.37
2017-08-09T09:58:22.390Z,986.39
2017-08-09T09:59:32.358Z,986.32
2017-08-09T10:00:42.328Z,986.31
2017-08-09T10:01:52.294Z,986.31
2017-08-09T10:03:02.255Z,986.28
2017-08-09T10:04:12.543Z,986.24
2017-08-09T10:05:22.823Z,986.23
2017-08-09T10:06:32.787Z,986.23
2017-08-09T10:07:42.761Z,986.24
2017-08-09T10:08:53.037Z,986.23
2017-08-09T10:10:02.681Z,986.22
2017-08-09T10:11:12.014Z,986.22
2017-08-09T10:12:22.010Z,986.23
2017-08-09T10:13:32.285Z,986.24
2017-08-09T10:14:41.928Z,986.26
2017-08-09T10:15:51.577Z,986.28
2017-08-09T10:17:01.856Z,986.28
2017-08-09T10:18:11.817Z,986.28
2017-08-09T10:19:22.091Z,986.24
2017-08-09T10:20:32.050Z,986.24
2017-08-09T10:21:42.343Z,986.21
2017-08-09T10:22:52.304Z,986.2
2017-08-09T10:24:02.266Z,986.2
2017-08-09T10:25:11.907Z,986.13
2017-08-09T10:26:22.187Z,986.16
2017-08-09T10:27:32.148Z,986.15
2017-08-09T10:28:42.422Z,986.17
2017-08-09T10:29:52.399Z,986.16
2017-08-09T10:31:02.674Z,986.16
2017-08-09T10:32:12.952Z,986.1
2017-08-09T10:33:22.909Z,986.09
2017-08-09T10:34:33.208Z,986.06
2017-08-09T10:35:43.482Z,986.1
2017-08-09T10:36:53.443Z,986.09
2017-08-09T10:38:03.408Z,986.12
2017-08-09T10:39:13.367Z,986.07
2017-08-09T10:40:23.335Z,986.06
2017-08-09T10:41:33.613Z,986.04
2017-08-09T10:42:43.596Z,986.05
2017-08-09T10:43:53.878Z,986.03
2017-08-09T10:45:04.155Z,986.08
2017-08-09T10:46:14.114Z,986.06
2017-08-09T10:47:24.393Z,986.08
2017-08-09T10:48:34.375Z,986.08
2017-08-09T10:49:44.354Z,986.03
2017-08-09T10:50:53.999Z,985.9
2017-08-09T10:52:03.955Z,985.83
2017-08-09T10:53:13.618Z,985.8
2017-08-09T10:54:23.269Z,985.78
2017-08-09T10:55:33.230Z,985.78
2017-08-09T10:56:43.193Z,985.82
2017-08-09T10:57:53.481Z,985.86
2017-08-09T10:59:03.753Z,985.89
2017-08-09T11:00:13.716Z,986
2017-08-09T11:01:23.992Z,986
2017-08-09T11:02:34.266Z,985.99
2017-08-09T11:03:44.541Z,986.02
2017-08-09T11:04:54.508Z,986
2017-08-09T11:06:04.154Z,985.98
2017-08-09T11:07:14.114Z,985.94
2017-08-09T11:08:24.074Z,985.93
2017-08-09T11:09:34.034Z,985.92
2017-08-09T11:10:44.311Z,985.93
2017-08-09T11:11:54.276Z,985.86
2017-08-09T11:13:04.549Z,985.82
2017-08-09T11:14:14.817Z,985.83
2017-08-09T11:15:24.776Z,985.78
2017-08-09T11:16:34.733Z,985.83
2017-08-09T11:17:44.381Z,985.79
2017-08-09T11:18:54.342Z,985.84
2017-08-09T11:20:04.632Z,985.84
2017-08-09T11:21:14.591Z,985.81
2017-08-09T11:22:24.879Z,985.83
2017-08-09T11:23:35.163Z,985.81
2017-08-09T11:24:45.437Z,985.78
2017-08-09T11:25:55.708Z,985.76
2017-08-09T11:27:05.981Z,985.71
2017-08-09T11:28:15.945Z,985.66
2017-08-09T11:29:26.223Z,985.66
2017-08-09T11:30:36.500Z,985.63
2017-08-09T11:31:46.774Z,985.56
2017-08-09T11:32:57.062Z,985.53
2017-08-09T11:34:07.336Z,985.52
2017-08-09T11:35:17.299Z,985.47
2017-08-09T11:36:27.264Z,985.48
2017-08-09T11:37:37.237Z,985.45
2017-08-09T11:38:46.884Z,985.41
2017-08-09T11:39:56.844Z,985.43
2017-08-09T11:41:06.506Z,985.34
2017-08-09T11:42:16.159Z,985.34
2017-08-09T11:43:26.121Z,985.33
2017-08-09T11:44:36.092Z,985.29
2017-08-09T11:45:46.055Z,985.29
2017-08-09T11:46:55.702Z,985.31
2017-08-09T11:48:05.352Z,985.24
2017-08-09T11:49:15.315Z,985.22
2017-08-09T11:50:25.595Z,985.24
2017-08-09T11:51:35.865Z,985.2
2017-08-09T11:52:45.511Z,985.19
2017-08-09T11:53:55.786Z,985.17
2017-08-09T11:55:05.755Z,985.13
2017-08-09T11:56:15.714Z,985.15
2017-08-09T11:57:26.003Z,985.08
2017-08-09T11:58:36.288Z,985.08
2017-08-09T11:59:45.932Z,985.05
2017-08-09T12:00:56.215Z,985.02
2017-08-09T12:02:06.172Z,985.01
2017-08-09T12:03:16.454Z,985.03
2017-08-09T12:04:26.420Z,985.02
2017-08-09T12:05:36.696Z,984.99
2017-08-09T12:06:46.738Z,985.04
2017-08-09T12:07:56.699Z,984.99
2017-08-09T12:09:06.660Z,984.98
2017-08-09T12:10:16.624Z,984.95
2017-08-09T12:11:26.589Z,984.93
2017-08-09T12:12:36.863Z,984.93
2017-08-09T12:13:46.825Z,984.99
2017-08-09T12:14:56.484Z,984.99
2017-08-09T12:16:06.445Z,984.98
2017-08-09T12:17:16.720Z,984.94
2017-08-09T12:18:27.017Z,984.91
2017-08-09T12:19:37.304Z,984.83
2017-08-09T12:20:47.583Z,984.78
2017-08-09T12:21:57.551Z,984.74
2017-08-09T12:23:07.826Z,984.7
2017-08-09T12:24:17.789Z,984.78
2017-08-09T12:25:28.063Z,984.77
2017-08-09T12:26:37.716Z,984.78
2017-08-09T12:27:47.993Z,984.74
2017-08-09T12:28:58.271Z,984.72
2017-08-09T12:30:08.564Z,984.7
2017-08-09T12:31:17.898Z,984.68
2017-08-09T12:32:28.174Z,984.66
2017-08-09T12:33:38.150Z,984.65
2017-08-09T12:34:48.435Z,984.63
2017-08-09T12:35:58.717Z,984.57
2017-08-09T12:37:08.369Z,984.59
2017-08-09T12:38:18.651Z,984.53
2017-08-09T12:39:28.615Z,984.55
2017-08-09T12:40:37.946Z,984.59
2017-08-09T12:41:48.222Z,984.64
2017-08-09T12:42:58.508Z,984.64
2017-08-09T12:44:08.788Z,984.63
2017-08-09T12:45:18.445Z,984.61
2017-08-09T12:46:28.725Z,984.6
2017-08-09T12:47:39.020Z,984.56
2017-08-09T12:48:48.981Z,984.53
2017-08-09T12:49:59.254Z,984.53
2017-08-09T12:51:09.221Z,984.52
2017-08-09T12:52:19.495Z,984.47
2017-08-09T12:53:29.774Z,984.49
2017-08-09T12:54:39.436Z,984.47
2017-08-09T12:55:49.733Z,984.4
2017-08-09T12:56:59.692Z,984.4
2017-08-09T12:58:09.965Z,984.37
2017-08-09T12:59:20.175Z,984.34
2017-08-09T13:00:29.196Z,984.32
2017-08-09T13:01:39.471Z,984.28
2017-08-09T13:02:49.742Z,984.25
2017-08-09T13:03:59.702Z,984.26
2017-08-09T13:05:09.346Z,984.31
2017-08-09T13:06:19.619Z,984.29
2017-08-09T13:07:29.265Z,984.26
2017-08-09T13:08:39.228Z,984.25
2017-08-09T13:09:48.556Z,984.19
2017-08-09T13:10:58.517Z,984.13
2017-08-09T13:12:08.790Z,984.12
2017-08-09T13:13:18.756Z,984.1
2017-08-09T13:14:29.027Z,984.08
2017-08-09T13:15:38.672Z,984.07
2017-08-09T13:16:48.641Z,984.1
2017-08-09T13:17:58.919Z,984.07
2017-08-09T13:19:09.194Z,984.03
2017-08-09T13:20:19.472Z,984.06
2017-08-09T13:21:29.750Z,984.06
2017-08-09T13:22:39.081Z,984.1
2017-08-09T13:23:49.046Z,984.08
2017-08-09T13:24:58.688Z,984.09
2017-08-09T13:26:08.646Z,984.06
2017-08-09T13:27:18.930Z,984.04
2017-08-09T13:28:28.891Z,983.99
2017-08-09T13:29:38.856Z,984.03
2017-08-09T13:30:48.815Z,983.99
2017-08-09T13:31:59.088Z,983.99
2017-08-09T13:33:09.373Z,983.96
2017-08-09T13:34:18.707Z,983.98
2017-08-09T13:35:28.980Z,983.97
2017-08-09T13:36:39.255Z,983.95
2017-08-09T13:37:49.212Z,983.97
2017-08-09T13:38:59.172Z,983.92
2017-08-09T13:40:09.449Z,983.9
2017-08-09T13:41:19.728Z,983.82
2017-08-09T13:42:29.687Z,983.88
2017-08-09T13:43:39.980Z,983.9
2017-08-09T13:44:50.272Z,983.86
2017-08-09T13:46:00.577Z,983.86
2017-08-09T13:47:10.887Z,983.84
2017-08-09T13:48:21.162Z,983.87
2017-08-09T13:49:31.442Z,983.86
2017-08-09T13:50:41.414Z,983.87
2017-08-09T13:51:53.795Z,983.94
2017-08-09T13:53:03.751Z,983.88
2017-08-09T13:54:13.709Z,983.86
2017-08-09T13:55:23.984Z,983.78
2017-08-09T13:56:34.262Z,983.82
2017-08-09T13:57:43.908Z,983.81
2017-08-09T13:58:53.871Z,983.79
2017-08-09T14:00:04.150Z,983.75
2017-08-09T14:01:14.449Z,983.78
2017-08-09T14:02:24.407Z,983.78
2017-08-09T14:03:34.682Z,983.74
2017-08-09T14:04:44.963Z,983.7
2017-08-09T14:05:54.932Z,983.69
2017-08-09T14:07:05.208Z,983.74
2017-08-09T14:08:15.167Z,983.7
2017-08-09T14:09:25.142Z,983.7
2017-08-09T14:10:35.414Z,983.67
2017-08-09T14:11:45.684Z,983.63
2017-08-09T14:12:55.642Z,983.58
2017-08-09T14:14:05.914Z,983.6
2017-08-09T14:15:15.906Z,983.56
2017-08-09T14:16:26.185Z,983.6
2017-08-09T14:17:36.148Z,983.57
2017-08-09T14:18:46.416Z,983.57
2017-08-09T14:19:56.378Z,983.54
2017-08-09T14:21:06.336Z,983.52
2017-08-09T14:22:16.611Z,983.53
2017-08-09T14:23:26.901Z,983.51
2017-08-09T14:24:36.861Z,983.51
2017-08-09T14:25:46.825Z,983.5
2017-08-09T14:26:56.789Z,983.53
2017-08-09T14:28:07.060Z,983.44
2017-08-09T14:29:16.708Z,983.46
2017-08-09T14:30:26.981Z,983.44
2017-08-09T14:31:37.261Z,983.52
2017-08-09T14:32:46.590Z,983.46
2017-08-09T14:33:56.870Z,983.43
2017-08-09T14:35:06.834Z,983.44
2017-08-09T14:36:17.109Z,983.37